Frenchglen, Oregon
Current Conditions -  °F | °C
As of 10:53 PM on Monday 20 Oct 2014 (Local Time) from KBNO Reporting Station
Light Rain Light Rain  
Wind Chill: 45°   Ceiling: 8000
Heat Index: 45°   Visibility: 10mi
Dew Point: 42°   Wind: 0mph
Humidity: 90%   Direction: NA
Pressure: 29.9"   Gusts: NA
Location:  42.83°N, 118.92°W
Report Text: KBNO 210553Z AUTO 00000KT 10SM -RA FEW024 FEW033 OVC080 07/06 A2990 RMK AO2 SLP110 P0003 60008 T00720056 10200 20072 50017
Loading
Personal Weather Stations






























Interactive Weather Map
Tropical Storm Tracking
New forecast layout! Learn more

10-Day Weather Forecast

Advertisements
Track Severe Weather on mobile